Hales Eddy, New York
Current Conditions -  °F | °C
As of 10:15 PM on Friday 21 Nov 2014 (Local Time) from KMSV Reporting Station
Clear Clear  
Wind Chill: -13°   Ceiling: Unl
Heat Index: -9°   Visibility: 10mi
Dew Point: -13°   Wind: 5mph
Humidity: 73%   Direction: 270°W
Pressure: 30.39"   Gusts: NA
Location:  41.9099°N, 75.1815°W
Report Text: KMSV 220315Z AUTO 27004KT 10SM CLR M09/M13 A3039 RMK AO1
Loading
Personal Weather Stations






























Interactive Weather Map New forecast layout! Learn more

10-Day Weather Forecast

Advertisements
Track Severe Weather on mobile